createdAt,value
2019-01-13T17:35:52.134Z,5.87
2019-01-13T17:37:00.187Z,5.67
2019-01-13T17:38:07.719Z,4.67
2019-01-13T17:39:15.509Z,4.63
2019-01-13T17:40:25.547Z,5.33
2019-01-13T17:41:33.516Z,6.60
2019-01-13T17:42:41.800Z,6.93
2019-01-13T17:43:49.463Z,4.93
2019-01-13T17:44:57.021Z,5.20
2019-01-13T17:46:04.916Z,4.87
2019-01-13T17:47:12.866Z,5.77
2019-01-13T17:48:20.490Z,5.23
2019-01-13T17:49:28.432Z,5.87
2019-01-13T17:50:36.381Z,5.60
2019-01-13T17:51:44.020Z,5.90
2019-01-13T17:52:52.167Z,5.17
2019-01-13T17:53:59.827Z,5.80
2019-01-13T17:55:13.816Z,5.20
2019-01-13T17:56:22.591Z,5.07
2019-01-13T17:57:30.662Z,4.90
2019-01-13T17:58:38.427Z,5.57
2019-01-13T17:59:46.506Z,4.90
2019-01-13T18:00:56.745Z,4.60
2019-01-13T18:02:05.017Z,4.13
2019-01-13T18:03:17.348Z,4.97
2019-01-13T18:04:25.015Z,5.10
2019-01-13T18:05:33.902Z,5.67
2019-01-13T18:06:41.697Z,4.00
2019-01-13T18:07:49.568Z,5.47
2019-01-13T18:08:57.264Z,5.07
2019-01-13T18:10:07.134Z,5.23
2019-01-13T18:11:14.645Z,5.50
2019-01-13T18:12:22.347Z,5.00
2019-01-13T18:13:30.159Z,5.20
2019-01-13T18:14:37.978Z,4.90
2019-01-13T18:15:45.817Z,5.13
2019-01-13T18:16:53.563Z,5.10
2019-01-13T18:18:01.322Z,5.00
2019-01-13T18:19:09.425Z,5.50
2019-01-13T18:20:20.913Z,5.37
2019-01-13T18:21:28.414Z,5.43
2019-01-13T18:22:36.368Z,6.00
2019-01-13T18:23:44.161Z,4.97
2019-01-13T18:24:52.073Z,5.23
2019-01-13T18:26:00.243Z,5.20
2019-01-13T18:27:08.130Z,4.73
2019-01-13T18:28:15.852Z,4.70
2019-01-13T18:29:23.600Z,4.70
2019-01-13T18:30:31.180Z,5.30
2019-01-13T18:31:39.179Z,5.30
2019-01-13T18:32:46.670Z,4.63
2019-01-13T18:33:54.472Z,4.60
2019-01-13T18:35:02.096Z,4.27
2019-01-13T18:36:12.098Z,4.10
2019-01-13T18:37:19.910Z,4.73
2019-01-13T18:38:27.686Z,3.77
2019-01-13T18:39:35.329Z,4.50
2019-01-13T18:40:43.102Z,4.90
2019-01-13T18:41:51.139Z,4.30
2019-01-13T18:42:58.699Z,5.00
2019-01-13T18:44:10.278Z,4.63
2019-01-13T18:45:18.007Z,4.67
2019-01-13T18:46:25.679Z,4.10
2019-01-13T18:47:33.237Z,5.20
2019-01-13T18:48:41.004Z,4.70
2019-01-13T18:49:48.697Z,4.27
2019-01-13T18:50:56.439Z,4.87
2019-01-13T18:52:04.201Z,3.97
2019-01-13T18:53:14.809Z,4.43
2019-01-13T18:54:22.570Z,4.90
2019-01-13T18:55:30.760Z,4.03
2019-01-13T18:56:38.539Z,3.83
2019-01-13T18:57:46.192Z,4.20
2019-01-13T18:58:53.912Z,4.23
2019-01-13T19:00:01.307Z,3.33
2019-01-13T19:01:09.185Z,4.40
2019-01-13T19:02:17.293Z,4.93
2019-01-13T19:03:24.933Z,5.33
2019-01-13T19:04:33.082Z,3.87
2019-01-13T19:05:40.888Z,4.87
2019-01-13T19:06:48.410Z,4.67
2019-01-13T19:07:56.028Z,3.50
2019-01-13T19:09:05.345Z,3.87
2019-01-13T19:10:21.622Z,3.67
2019-01-13T19:11:27.552Z,3.77
2019-01-13T19:12:35.017Z,3.63
2019-01-13T19:14:05.745Z,4.23
2019-01-13T19:15:13.427Z,4.37
2019-01-13T19:16:22.948Z,4.17
2019-01-13T19:17:30.443Z,4.10
2019-01-13T19:18:37.882Z,4.10
2019-01-13T19:19:46.050Z,4.40
2019-01-13T19:20:53.662Z,3.70
2019-01-13T19:22:01.211Z,3.37
2019-01-13T19:23:09.123Z,4.40
2019-01-13T19:24:16.892Z,4.10
2019-01-13T19:25:24.865Z,4.20
2019-01-13T19:26:32.571Z,4.17
2019-01-13T19:27:40.395Z,3.23
2019-01-13T19:28:48.233Z,3.17
2019-01-13T19:29:56.056Z,3.10
2019-01-13T19:31:03.689Z,3.50
2019-01-13T19:32:12.153Z,3.30
2019-01-13T19:33:20.002Z,3.50
2019-01-13T19:34:27.857Z,3.50
2019-01-13T19:35:35.738Z,3.90
2019-01-13T19:36:43.626Z,3.33
2019-01-13T19:37:51.153Z,3.90
2019-01-13T19:38:59.105Z,3.80
2019-01-13T19:40:17.009Z,3.03
2019-01-13T19:41:24.800Z,3.70
2019-01-13T19:42:32.575Z,3.50
2019-01-13T19:43:40.443Z,3.47
2019-01-13T19:44:48.484Z,3.43
2019-01-13T19:45:56.930Z,2.87
2019-01-13T19:47:04.742Z,3.53
2019-01-13T19:48:12.424Z,3.90
2019-01-13T19:49:20.017Z,3.70
2019-01-13T19:50:28.021Z,3.50
2019-01-13T19:51:36.194Z,2.70
2019-01-13T19:52:43.735Z,3.17
2019-01-13T19:53:51.994Z,2.97
2019-01-13T19:54:59.706Z,3.10
2019-01-13T19:56:07.278Z,3.30
2019-01-13T19:57:15.421Z,3.07
2019-01-13T19:58:23.380Z,3.40
2019-01-13T19:59:31.494Z,3.10
2019-01-13T20:00:39.015Z,2.63
2019-01-13T20:01:46.730Z,3.37
2019-01-13T20:02:56.332Z,3.33
2019-01-13T20:04:04.294Z,3.00
2019-01-13T20:05:12.029Z,3.67
2019-01-13T20:06:19.906Z,3.60
2019-01-13T20:07:27.525Z,2.70
2019-01-13T20:08:34.948Z,3.30
2019-01-13T20:09:42.633Z,3.60
2019-01-13T20:10:50.647Z,3.00
2019-01-13T20:11:58.450Z,3.30
2019-01-13T20:13:06.140Z,3.13
2019-01-13T20:14:14.130Z,3.60
2019-01-13T20:15:23.061Z,3.27
2019-01-13T20:16:31.005Z,3.03
2019-01-13T20:17:38.612Z,2.97
2019-01-13T20:18:46.444Z,3.50
2019-01-13T20:19:53.756Z,3.40
2019-01-13T20:21:01.646Z,3.17
2019-01-13T20:22:09.433Z,3.27
2019-01-13T20:23:17.068Z,2.73
2019-01-13T20:24:24.606Z,3.30
2019-01-13T20:25:32.201Z,3.80
2019-01-13T20:26:39.937Z,3.03
2019-01-13T20:27:47.838Z,3.10
2019-01-13T20:28:56.091Z,3.70
2019-01-13T20:30:04.074Z,3.80
2019-01-13T20:31:12.014Z,3.47
2019-01-13T20:32:19.717Z,3.37
2019-01-13T20:33:27.485Z,3.30
2019-01-13T20:34:35.477Z,3.53
2019-01-13T20:35:43.256Z,3.37
2019-01-13T20:36:50.988Z,3.33
2019-01-13T20:37:59.235Z,3.47
2019-01-13T20:39:09.637Z,3.40
2019-01-13T20:40:18.176Z,3.33
2019-01-13T20:41:25.877Z,2.93
2019-01-13T20:42:33.766Z,3.70
2019-01-13T20:43:41.786Z,3.10
2019-01-13T20:44:49.527Z,3.33
2019-01-13T20:45:57.594Z,3.30
2019-01-13T20:47:05.547Z,3.50
2019-01-13T20:48:13.245Z,2.60
2019-01-13T20:49:21.569Z,3.13
2019-01-13T20:50:29.218Z,3.77
2019-01-13T20:51:37.030Z,2.80
2019-01-13T20:52:45.315Z,2.50
2019-01-13T20:53:53.409Z,3.17
2019-01-13T20:55:01.257Z,2.47
2019-01-13T20:56:09.561Z,2.93
2019-01-13T20:57:17.822Z,2.47
2019-01-13T20:58:25.431Z,3.03
2019-01-13T20:59:32.834Z,3.10
2019-01-13T21:00:40.932Z,2.90
2019-01-13T21:01:48.518Z,3.03
2019-01-13T21:02:56.294Z,2.37
2019-01-13T21:04:04.009Z,2.80
2019-01-13T21:05:11.568Z,3.03
2019-01-13T21:06:19.292Z,2.67
2019-01-13T21:07:26.938Z,2.67
2019-01-13T21:08:35.190Z,2.93
2019-01-13T21:09:43.279Z,2.73
2019-01-13T21:10:50.921Z,2.90
2019-01-13T21:11:58.451Z,3.00
2019-01-13T21:13:06.216Z,3.00
2019-01-13T21:14:13.904Z,2.80
2019-01-13T21:15:26.391Z,3.10
2019-01-13T21:16:33.996Z,3.10
2019-01-13T21:17:41.606Z,2.73
2019-01-13T21:18:49.199Z,3.17
2019-01-13T21:19:56.755Z,2.60
2019-01-13T21:21:04.300Z,2.97
2019-01-13T21:22:11.714Z,3.10
2019-01-13T21:23:21.784Z,3.00
2019-01-13T21:24:29.550Z,2.17
2019-01-13T21:25:37.312Z,2.50
2019-01-13T21:26:45.824Z,3.43
2019-01-13T21:27:55.016Z,3.50
2019-01-13T21:29:02.807Z,3.10
2019-01-13T21:30:18.434Z,3.70
2019-01-13T21:31:26.896Z,3.30
2019-01-13T21:32:34.735Z,4.00
2019-01-13T21:33:42.469Z,3.67
2019-01-13T21:34:50.451Z,3.53
2019-01-13T21:35:58.366Z,3.20
2019-01-13T21:37:05.909Z,3.50
2019-01-13T21:38:13.364Z,4.17
2019-01-13T21:39:21.084Z,3.33
2019-01-13T21:40:28.623Z,3.63
2019-01-13T21:41:36.212Z,3.27
2019-01-13T21:42:44.021Z,3.10
2019-01-13T21:43:52.069Z,2.80
2019-01-13T21:44:59.628Z,2.63
2019-01-13T21:46:07.360Z,3.37
2019-01-13T21:47:14.891Z,3.20
2019-01-13T21:48:22.521Z,3.43
2019-01-13T21:49:30.470Z,2.90
2019-01-13T21:50:38.294Z,3.40
2019-01-13T21:51:46.047Z,3.57
2019-01-13T21:52:54.296Z,4.23
2019-01-13T21:54:02.240Z,3.80
2019-01-13T21:55:12.997Z,5.03
2019-01-13T21:56:20.742Z,4.63
2019-01-13T21:57:29.235Z,4.60
2019-01-13T21:58:36.919Z,3.57
2019-01-13T21:59:44.519Z,3.70
2019-01-13T22:00:52.287Z,3.23
2019-01-13T22:02:00.115Z,3.93
2019-01-13T22:03:07.669Z,3.87
2019-01-13T22:04:15.360Z,4.27
2019-01-13T22:05:23.680Z,3.83
2019-01-13T22:06:31.787Z,3.47
2019-01-13T22:07:39.436Z,3.53
2019-01-13T22:08:47.027Z,3.77
2019-01-13T22:09:54.709Z,3.97
2019-01-13T22:11:02.560Z,3.13
2019-01-13T22:12:10.286Z,2.23
2019-01-13T22:13:17.875Z,3.40
2019-01-13T22:14:25.401Z,3.13
2019-01-13T22:15:32.960Z,2.70
2019-01-13T22:16:40.676Z,3.33
2019-01-13T22:17:48.238Z,2.80
2019-01-13T22:18:55.893Z,3.10
2019-01-13T22:20:04.585Z,2.83
2019-01-13T22:21:12.508Z,3.80
2019-01-13T22:22:20.194Z,2.87
2019-01-13T22:23:27.973Z,3.60
2019-01-13T22:24:35.684Z,2.93
2019-01-13T22:25:43.264Z,2.67
2019-01-13T22:26:50.639Z,2.83
2019-01-13T22:27:58.309Z,3.40
2019-01-13T22:29:06.249Z,3.07
2019-01-13T22:30:17.193Z,2.93
2019-01-13T22:31:25.040Z,3.00
2019-01-13T22:32:32.766Z,2.90
2019-01-13T22:33:40.458Z,3.27
2019-01-13T22:34:48.036Z,2.97
2019-01-13T22:35:55.802Z,3.53
2019-01-13T22:37:03.335Z,3.13
2019-01-13T22:38:10.990Z,3.20
2019-01-13T22:39:18.680Z,3.07
2019-01-13T22:40:26.397Z,3.00
2019-01-13T22:41:34.051Z,3.50
2019-01-13T22:42:41.736Z,2.97
2019-01-13T22:43:49.250Z,3.30
2019-01-13T22:44:56.958Z,3.67
2019-01-13T22:46:04.606Z,3.90
2019-01-13T22:47:12.268Z,3.37
2019-01-13T22:48:20.067Z,3.57
2019-01-13T22:49:27.811Z,3.10
2019-01-13T22:50:35.651Z,3.87
2019-01-13T22:51:43.322Z,3.60
2019-01-13T22:52:51.026Z,2.90
2019-01-13T22:53:58.682Z,3.40
2019-01-13T22:55:08.931Z,3.10
2019-01-13T22:56:16.498Z,2.30
2019-01-13T22:57:24.141Z,2.63
2019-01-13T22:58:31.767Z,3.60
2019-01-13T22:59:39.301Z,3.37
2019-01-13T23:01:07.085Z,3.00
2019-01-13T23:02:14.391Z,2.70
2019-01-13T23:03:22.198Z,3.03
2019-01-13T23:04:30.117Z,2.90
2019-01-13T23:05:37.510Z,2.80
2019-01-13T23:06:45.127Z,2.97
2019-01-13T23:07:52.769Z,3.30
2019-01-13T23:09:00.414Z,3.00
2019-01-13T23:10:09.273Z,4.27
2019-01-13T23:11:16.851Z,3.30
2019-01-13T23:12:24.417Z,2.97
2019-01-13T23:13:32.078Z,2.67
2019-01-13T23:14:39.752Z,2.13
2019-01-13T23:15:47.351Z,2.97
2019-01-13T23:16:54.677Z,2.47
2019-01-13T23:18:02.411Z,2.83
2019-01-13T23:19:10.207Z,3.10
2019-01-13T23:20:18.045Z,2.87
2019-01-13T23:21:25.471Z,3.27
2019-01-13T23:22:33.159Z,2.33
2019-01-13T23:23:43.539Z,2.60
2019-01-13T23:24:51.328Z,2.30
2019-01-13T23:25:59.574Z,2.60
2019-01-13T23:27:07.048Z,2.37
2019-01-13T23:28:14.652Z,2.60
2019-01-13T23:29:22.660Z,2.73
2019-01-13T23:30:30.316Z,2.30
2019-01-13T23:31:38.003Z,2.63
2019-01-13T23:32:45.380Z,2.33
2019-01-13T23:33:53.265Z,2.70
2019-01-13T23:35:01.029Z,2.80
2019-01-13T23:36:08.608Z,2.63
2019-01-13T23:37:16.128Z,2.13
2019-01-13T23:38:23.563Z,2.50
2019-01-13T23:39:31.450Z,2.80
2019-01-13T23:40:40.776Z,2.10
2019-01-13T23:41:48.378Z,2.30
2019-01-13T23:42:55.939Z,2.20
2019-01-13T23:44:03.892Z,2.00
2019-01-13T23:45:11.798Z,2.30
2019-01-13T23:46:19.316Z,2.03
2019-01-13T23:47:26.936Z,2.33
2019-01-13T23:48:34.947Z,2.23
2019-01-13T23:49:42.955Z,1.93
2019-01-13T23:50:51.795Z,2.30
2019-01-13T23:51:59.577Z,2.60
2019-01-13T23:53:07.250Z,2.20
2019-01-13T23:54:15.193Z,2.00
2019-01-13T23:55:22.855Z,2.30
2019-01-13T23:56:30.687Z,2.20
2019-01-13T23:57:38.084Z,2.67
2019-01-13T23:58:46.078Z,2.17
2019-01-13T23:59:53.518Z,2.00
